Terminal Aerodrome Forecast
Issued by NWS

Home | Current Version | Previous Version | Text Only | Print | Product List | Glossary On
Versions: 1 2 3 4 5 6 7 8 9 10 11 12 13 14 15 16 17 18 19 20
737
FTUS46 KSEW 221100
TAFBFI
TAF
KBFI 221130Z 2212/2312 18008KT P6SM OVC009
     FM221600 18008KT P6SM OVC014
     FM222200 18008KT P6SM SCT015 OVC025
     FM230100 18008KT P6SM SCT025 OVC040
     FM230600 18008KT P6SM OVC026
     FM231100 18008KT P6SM OVC021=

USA.gov is the U.S. government's official web portal to all federal, state and local government web resources and services.